createdAt,value
2022-10-01T02:02:42.931Z,1014.97
2022-10-01T02:31:25.594Z,1014.6
2022-10-01T02:59:54.786Z,1014.73
2022-10-01T03:28:33.835Z,1014.77
2022-10-01T04:25:19.949Z,1014.35
2022-10-01T04:53:43.049Z,1014.19
2022-10-01T05:22:22.263Z,1013.94
2022-10-01T05:50:58.691Z,1013.82
2022-10-01T06:19:48.916Z,1013.58
2022-10-01T06:48:08.359Z,1013.24
2022-10-01T07:16:50.890Z,1013.08
2022-10-01T07:45:28.612Z,1013.27
2022-10-01T08:13:43.573Z,1013.58
2022-10-01T08:42:03.569Z,1013.66
2022-10-01T09:10:17.057Z,1014.01
2022-10-01T09:38:47.768Z,1013.97
2022-10-01T10:07:15.954Z,1014.24
2022-10-01T10:35:50.738Z,1014.51
2022-10-01T11:04:09.980Z,1014.85
2022-10-01T11:32:36.235Z,1014.91
2022-10-01T12:01:09.262Z,1014.96
2022-10-01T12:29:50.227Z,1014.99
2022-10-01T12:58:21.164Z,1015.12
2022-10-01T13:27:00.168Z,1015.46
2022-10-01T13:55:42.699Z,1015.72
2022-10-01T14:24:08.509Z,1016
2022-10-01T14:52:48.166Z,1015.91
2022-10-01T15:21:23.749Z,1015.95
2022-10-01T15:50:11.852Z,1016.26
2022-10-01T16:18:45.199Z,1016.71
2022-10-01T16:47:25.624Z,1016.69
2022-10-01T17:15:49.456Z,1017.09
2022-10-01T17:44:53.916Z,1017.84
2022-10-01T18:13:17.799Z,1018.13
2022-10-01T18:41:54.005Z,1018.39
2022-10-01T19:38:39.193Z,1019.45
2022-10-01T20:07:04.754Z,1019.93
2022-10-01T21:03:56.946Z,1020.35
2022-10-01T22:29:49.417Z,1021.45
2022-10-01T22:58:14.086Z,1021.59
2022-10-01T23:26:57.499Z,1021.82
2022-10-01T23:55:40.532Z,1022.2
